Latest Weather Observations for Truscott

IDW60801

Issued at 12:35 pm WST Thursday 28 August 2014 (issued every 30 minutes, with the page automatically refreshed every 10 minutes)

About weather observations | Map of weather stations | Latest weather observations for WA | Other Formats
Station Details ID: 001020 Name: TRUSCOTT Lat: -14.09 Lon: 126.39 Height: 51.0 m
Data from the previous 72 hours. | See also: Recent months at Truscott
Date/Time
WST
Temp
°C
App
Temp
°C
Dew
Point
Rel
Hum
%
Delta-T
°C
Wind Press
QNH
hPa
Press
MSL
hPa
Rain
since 9 am
mm
Dir
 
Spd
km/h
Gust
km/h
Spd
kts
Gust
kts
28/12:30pm 31.0 25.8 0.0 13 14.9 E 17 26 9 14 1013.0 - 0.0
28/12:00pm 31.3 26.3 1.6 15 14.7 E 17 22 9 12 1013.0 1013.1 0.0
28/11:30am 30.0 25.5 2.0 16 13.9 E 15 - 8 - 1014.0 - 0.0
28/11:00am 30.0 24.4 0.0 14 14.4 E 19 - 10 - 1014.0 - 0.0
28/10:30am 30.0 24.1 -2.0 12 14.8 E 19 - 10 - 1015.0 - 0.0
28/10:00am 29.0 23.4 0.0 15 13.8 E 19 - 10 - 1015.0 - 0.0
28/09:30am 28.0 21.8 -3.0 13 13.9 E 20 - 11 - 1015.0 - 0.0
28/09:00am 27.3 21.5 -1.6 15 13.2 ESE 19 - 10 - 1015.0 1015.2 0.0
28/08:30am 26.0 20.3 -1.0 17 12.3 E 19 - 10 - 1015.0 - 0.0
28/08:00am 25.0 20.7 1.0 20 11.3 ESE 13 - 7 - 1015.0 - 0.0
28/07:30am 24.0 19.5 0.0 20 11.0 ESE 13 - 7 - 1015.0 - 0.0
28/07:00am 22.0 18.2 2.0 26 9.4 ESE 11 - 6 - 1015.0 - 0.0
28/06:30am 21.0 18.0 4.0 32 8.2 ESE 9 - 5 - 1014.0 - 0.0
28/06:00am 18.7 15.8 4.8 40 6.7 E 9 - 5 - 1014.0 1014.1 0.0
28/05:30am 17.0 14.6 7.0 51 5.0 ESE 9 - 5 - 1014.0 - 0.0
28/05:00am 15.0 13.0 7.0 59 3.9 SE 7 - 4 - 1014.0 - 0.0
28/04:30am 16.0 14.9 7.0 55 4.5 S 2 - 1 - 1014.0 - 0.0
28/04:00am 16.0 14.2 7.0 55 4.5 S 6 - 3 - 1014.0 - 0.0
28/03:30am 18.0 17.3 7.0 48 5.5 CALM 0 - 0 - 1013.0 - 0.0
28/03:00am 18.3 16.2 6.8 47 5.8 SW 7 - 4 - 1013.0 1013.2 0.0
28/02:30am 18.0 16.0 7.0 48 5.5 SSW 7 - 4 - 1013.0 - 0.0
28/02:00am 18.0 16.5 7.0 48 5.5 SW 4 - 2 - 1013.0 - 0.0
28/01:30am 19.0 17.2 8.0 49 5.7 SW 7 - 4 - 1014.0 - 0.0
28/01:00am 18.0 16.4 8.0 52 5.1 SSE 6 - 3 - 1014.0 - 0.0
28/12:30am 18.0 16.2 8.0 52 5.1 ESE 7 - 4 - 1014.0 - 0.0
28/12:00am 18.5 16.8 8.5 52 5.2 ESE 7 9 4 5 1014.0 1013.7 0.0
 
Date/Time
WST
Temp
°C
App
Temp
°C
Dew
Point
Rel
Hum
%
Delta-T
°C
Wind Press
QNH
hPa
Press
MSL
hPa
Rain
since 9 am
mm
Dir
 
Spd
km/h
Gust
km/h
Spd
kts
Gust
kts
27/11:30pm 19.0 17.5 9.0 52 5.2 ESE 7 - 4 - 1014.0 - 0.0
27/11:00pm 20.0 18.3 10.0 52 5.4 ESE 9 - 5 - 1014.0 - 0.0
27/10:30pm 21.0 20.0 11.0 52 5.5 ESE 7 - 4 - 1014.0 - 0.0
27/10:00pm 21.0 19.6 11.0 52 5.5 E 9 - 5 - 1014.0 - 0.0
27/09:30pm 21.0 19.9 12.0 56 5.0 E 9 - 5 - 1014.0 - 0.0
27/09:00pm 21.7 20.3 10.8 50 6.0 E 9 - 5 - 1014.0 1014.2 0.0
27/08:30pm 23.0 21.3 10.0 43 7.1 ENE 9 - 5 - 1014.0 - 0.0
27/08:00pm 23.0 21.0 10.0 43 7.1 ENE 11 - 6 - 1014.0 - 0.0
27/07:30pm 24.0 21.5 8.0 36 8.5 ENE 11 - 6 - 1014.0 - 0.0
27/07:00pm 25.0 22.1 8.0 34 9.1 ENE 13 - 7 - 1013.0 - 0.0
27/06:30pm 25.0 21.5 7.0 31 9.4 NE 15 - 8 - 1013.0 - 0.0
27/06:00pm 25.9 21.8 6.0 28 10.3 NE 17 19 9 10 1012.0 1012.4 0.0
27/05:30pm 26.0 22.1 7.0 29 10.0 NE 17 - 9 - 1012.0 - 0.0
27/05:00pm 27.0 22.5 7.0 28 10.6 NE 20 - 11 - 1012.0 - 0.0
27/04:30pm 29.0 24.7 7.0 25 11.8 ENE 19 - 10 - 1012.0 - 0.0
27/04:00pm 29.0 24.3 6.0 23 12.1 NE 20 - 11 - 1011.0 - 0.0
27/03:30pm 30.0 24.7 5.0 20 13.0 NE 22 - 12 - 1011.0 - 0.0
27/03:00pm 30.2 24.6 5.5 21 13.0 ENE 24 - 13 - 1011.0 1011.0 0.0
27/02:30pm 30.0 24.9 6.0 22 12.7 ENE 22 - 12 - 1011.0 - 0.0
27/02:00pm 31.0 26.1 5.0 19 13.6 ENE 20 - 11 - 1011.0 - 0.0
27/01:30pm 32.0 27.1 4.0 17 14.5 E 19 - 10 - 1012.0 - 0.0
27/01:00pm 31.0 24.8 2.0 15 14.5 E 24 - 13 - 1012.0 - 0.0
27/12:30pm 31.0 25.3 3.0 17 14.2 ENE 22 - 12 - 1012.0 - 0.0
27/12:00pm 31.7 26.6 2.8 16 14.7 E 19 - 10 - 1012.0 1012.4 0.0
27/11:30am 31.0 25.9 1.0 14 14.7 ENE 17 - 9 - 1013.0 - 0.0
27/11:00am 30.0 24.9 3.0 18 13.6 ENE 19 - 10 - 1014.0 - 0.0
27/10:30am 30.0 24.5 2.0 16 13.9 E 20 - 11 - 1014.0 - 0.0
27/10:00am 29.0 23.4 1.0 16 13.5 E 20 - 11 - 1014.0 - 0.0
27/09:30am 29.0 23.4 1.0 16 13.5 ESE 20 39 11 21 1015.0 - 0.0
27/09:00am 28.5 24.0 1.9 18 13.0 ESE 15 - 8 - 1015.0 1014.7 0.0
27/08:30am 27.0 21.7 2.0 20 12.1 ESE 19 - 10 - 1015.0 - 0.0
27/08:00am 26.0 20.9 1.0 19 11.8 ESE 17 - 9 - 1015.0 - 0.0
27/07:30am 25.0 20.3 1.0 20 11.3 ESE 15 - 8 - 1014.0 - 0.0
27/07:00am 24.0 19.3 1.0 22 10.7 ESE 15 - 8 - 1014.0 - 0.0
27/06:30am 22.0 18.1 1.0 25 9.6 SE 11 - 6 - 1014.0 - 0.0
27/06:00am 20.3 16.6 0.2 26 9.0 SSE 9 - 5 - 1013.0 1013.4 0.0
27/05:30am 20.0 16.7 0.0 26 8.9 SE 7 - 4 - 1013.0 - 0.0
27/05:00am 20.0 16.5 1.0 28 8.6 SSE 9 - 5 - 1013.0 - 0.0
27/04:30am 19.0 16.0 2.0 32 7.8 SSE 7 - 4 - 1013.0 - 0.0
27/04:00am 19.0 15.6 2.0 32 7.8 S 9 - 5 - 1012.0 - 0.0
27/03:30am 18.0 15.4 4.0 39 6.6 SSW 7 - 4 - 1012.0 - 0.0
27/03:00am 19.2 16.5 5.6 41 6.7 SW 9 - 5 - 1012.0 1012.4 0.0
27/02:30am 19.0 17.7 10.0 56 4.8 SW 7 - 4 - 1013.0 - 0.0
27/02:00am 19.0 17.1 9.0 52 5.2 SW 9 - 5 - 1013.0 - 0.0
27/01:30am 18.0 17.2 8.0 52 5.1 SW 2 - 1 - 1013.0 - 0.0
27/01:00am 18.0 17.3 12.0 68 3.3 S 7 - 4 - 1014.0 - 0.0
27/12:30am 18.0 17.6 13.0 72 2.8 S 7 - 4 - 1014.0 - 0.0
27/12:00am 17.9 18.0 14.4 80 2.0 S 7 - 4 - 1014.0 1014.0 0.0
 
Date/Time
WST
Temp
°C
App
Temp
°C
Dew
Point
Rel
Hum
%
Delta-T
°C
Wind Press
QNH
hPa
Press
MSL
hPa
Rain
since 9 am
mm
Dir
 
Spd
km/h
Gust
km/h
Spd
kts
Gust
kts
26/11:30pm 18.0 17.9 14.0 77 2.3 ESE 7 - 4 - 1014.0 - 0.0
26/11:00pm 19.0 19.3 15.0 77 2.3 E 7 - 4 - 1014.0 - 0.0
26/10:30pm 19.0 18.8 13.0 68 3.4 E 6 - 3 - 1014.0 - 0.0
26/10:00pm 19.0 18.6 13.0 68 3.4 ENE 7 - 4 - 1014.0 - 0.0
26/09:30pm 19.0 18.3 12.0 64 3.9 ENE 7 - 4 - 1014.0 - 0.0
26/09:00pm 20.2 19.2 11.1 56 5.0 ENE 7 - 4 - 1014.0 1014.2 0.0
26/08:30pm 22.0 20.7 10.0 46 6.5 ENE 7 - 4 - 1014.0 - 0.0
26/08:00pm 23.0 21.1 9.0 41 7.5 ENE 9 - 5 - 1014.0 - 0.0
26/07:30pm 24.0 21.5 8.0 36 8.5 NE 11 - 6 - 1014.0 - 0.0
26/07:00pm 24.0 20.8 7.0 33 8.9 NE 13 - 7 - 1013.0 - 0.0
26/06:30pm 25.0 21.4 5.0 27 10.1 NE 13 - 7 - 1012.0 - 0.0
26/06:00pm 25.1 21.8 4.3 26 10.4 NE 11 - 6 - 1012.0 1011.9 0.0
26/05:30pm 26.0 21.7 3.0 22 11.3 NE 15 - 8 - 1012.0 - 0.0
26/05:00pm 27.0 22.7 3.0 21 11.9 NE 15 - 8 - 1011.0 - 0.0
26/04:30pm 28.0 23.1 4.0 21 12.1 NE 19 - 10 - 1011.0 - 0.0
26/04:00pm 29.0 24.5 4.0 20 12.7 NE 17 - 9 - 1011.0 - 0.0
26/03:30pm 30.0 25.3 3.0 18 13.6 ENE 17 - 9 - 1011.0 - 0.0
26/03:00pm 30.4 25.6 2.6 17 14.0 ENE 17 - 9 - 1012.0 1011.5 0.0
26/02:30pm 30.0 24.5 2.0 16 13.9 ENE 20 - 11 - 1012.0 - 0.0
26/02:00pm 30.0 24.0 1.0 15 14.1 ENE 22 - 12 - 1012.0 - 0.0
26/01:30pm 31.0 24.8 2.0 15 14.5 ENE 24 - 13 - 1013.0 - 0.0
26/01:00pm 30.0 23.8 2.0 16 13.9 ENE 24 - 13 - 1013.0 - 0.0
26/12:30pm 30.0 23.6 1.0 15 14.1 ENE 24 - 13 - 1013.0 - 0.0
26/12:00pm 30.5 24.1 1.0 15 14.4 ENE 24 - 13 - 1014.0 1013.8 0.0
26/11:30am 31.0 24.6 1.0 14 14.7 E 24 - 13 - 1014.0 - 0.0
26/11:00am 30.0 24.4 1.0 15 14.1 E 20 - 11 - 1015.0 - 0.0
26/10:30am 29.0 23.4 1.0 16 13.5 E 20 - 11 - 1015.0 - 0.0
26/10:00am 29.0 22.8 2.0 17 13.3 E 24 - 13 - 1016.0 - 0.0
26/09:30am 28.0 21.5 0.0 16 13.2 ESE 24 - 13 - 1016.0 - 0.0
26/09:00am 28.1 22.1 0.8 17 13.1 ESE 22 43 12 23 1016.0 1015.7 0.0
26/08:30am 28.0 22.4 1.0 17 13.0 ESE 20 - 11 - 1016.0 - 0.0
26/08:00am 27.0 21.2 0.0 17 12.6 ESE 20 - 11 - 1015.0 - 0.0
26/07:30am 26.0 20.5 2.0 21 11.6 SE 20 - 11 - 1015.0 - 0.0
26/07:00am 25.0 20.1 2.0 22 11.0 SE 17 - 9 - 1015.0 - 0.0
26/06:30am 23.0 18.9 2.0 25 9.9 SE 13 - 7 - 1015.0 - 0.0
26/06:00am 22.1 18.3 1.7 26 9.5 SE 11 - 6 - 1014.0 1014.4 0.0
26/05:30am 22.0 18.5 1.0 25 9.6 SSE 9 - 5 - 1014.0 - 0.0
26/05:00am 22.0 18.5 1.0 25 9.6 ESE 9 - 5 - 1014.0 - 0.0
26/04:30am 24.0 19.7 1.0 22 10.7 SSE 13 - 7 - 1013.0 - 0.0
26/04:00am 23.0 19.5 1.0 23 10.2 SE 9 - 5 - 1013.0 - 0.0
26/03:30am 23.0 19.1 1.0 23 10.2 SSE 11 - 6 - 1013.0 - 0.0
26/03:00am 23.4 19.6 1.7 24 10.2 SSE 11 - 6 - 1013.0 1013.2 0.0
26/02:30am 23.0 19.6 2.0 25 9.9 SSE 9 - 5 - 1013.0 - 0.0
26/02:00am 23.0 19.6 2.0 25 9.9 SE 9 - 5 - 1013.0 - 0.0
26/01:30am 24.0 20.2 2.0 23 10.4 SSE 11 - 6 - 1014.0 - 0.0
26/01:00am 24.0 20.4 3.0 25 10.2 SSE 11 - 6 - 1014.0 - 0.0
26/12:30am 23.0 19.6 4.0 29 9.3 S 11 - 6 - 1014.0 - 0.0
26/12:00am 22.0 19.4 4.1 31 8.7 SSE 7 - 4 - 1014.0 1014.4 0.0
 
Date/Time
WST
Temp
°C
App
Temp
°C
Dew
Point
Rel
Hum
%
Delta-T
°C
Wind Press
QNH
hPa
Press
MSL
hPa
Rain
since 9 am
mm
Dir
 
Spd
km/h
Gust
km/h
Spd
kts
Gust
kts
25/11:30pm 23.0 20.2 5.0 31 9.0 SSE 9 - 5 - 1015.0 - 0.0
25/11:00pm 21.0 19.0 7.0 40 7.2 SSE 7 - 4 - 1015.0 - 0.0
25/10:30pm 20.0 18.5 9.0 49 5.8 SE 7 - 4 - 1015.0 - 0.0
25/10:00pm 20.0 19.2 11.0 56 4.9 E 6 - 3 - 1015.0 - 0.0
25/09:30pm 21.0 20.0 11.0 52 5.5 E 7 - 4 - 1015.0 - 0.0
25/09:00pm 20.8 19.8 10.9 53 5.4 ESE 7 - 4 - 1015.0 1014.6 0.0
25/08:30pm 22.0 20.7 10.0 46 6.5 E 7 - 4 - 1014.0 - 0.0
25/08:00pm 23.0 21.7 10.0 43 7.1 E 7 - 4 - 1014.0 - 0.0
25/07:30pm 24.0 22.5 9.0 38 8.1 ENE 7 - 4 - 1014.0 - 0.0
25/07:00pm 25.0 22.8 8.0 34 9.1 ENE 9 - 5 - 1014.0 - 0.0
25/06:30pm 26.0 23.7 9.0 34 9.3 NE 11 - 6 - 1013.0 - 0.0
25/06:00pm 26.4 24.2 9.3 34 9.4 ENE 11 - 6 - 1013.0 1012.8 0.0
25/05:30pm 27.0 24.6 10.0 34 9.5 ENE 13 - 7 - 1013.0 - 0.0
25/05:00pm 28.0 25.2 10.0 32 10.1 NE 15 - 8 - 1012.0 - 0.0
25/04:30pm 30.0 26.9 9.0 27 11.7 ENE 15 - 8 - 1012.0 - 0.0
25/04:00pm 30.0 25.9 8.0 25 12.1 E 19 - 10 - 1012.0 - 0.0
25/03:30pm 31.0 27.0 9.0 25 12.3 E 20 - 11 - 1012.0 - 0.0
25/03:00pm 31.0 26.9 8.7 25 12.4 E 20 - 11 - 1012.0 1011.8 0.0
25/02:30pm 31.0 26.9 8.0 24 12.7 E 19 - 10 - 1012.0 - 0.0
25/02:00pm 31.0 26.1 7.0 22 13.0 ENE 22 - 12 - 1012.0 - 0.0
25/01:30pm 32.0 27.4 8.0 22 13.3 E 22 - 12 - 1012.0 - 0.0
25/01:00pm 31.0 25.7 7.0 22 13.0 E 24 - 13 - 1013.0 - 0.0

Other Formats:

Comma delimited format used in spreadsheet applications
http://www.bom.gov.au/fwo/IDW60801/IDW60801.95101.axf

JavaScript Object Notation format (JSON) in row-major order
http://www.bom.gov.au/fwo/IDW60801/IDW60801.95101.json